createdAt,value
2019-05-02T00:01:21.953Z,10.15
2019-05-02T00:03:50.625Z,10.09
2019-05-02T00:06:19.259Z,10.10
2019-05-02T00:08:48.610Z,10.12
2019-05-02T00:11:17.747Z,10.13
2019-05-02T00:13:46.589Z,10.10
2019-05-02T00:16:15.528Z,10.05
2019-05-02T00:18:44.193Z,10.07
2019-05-02T00:21:12.913Z,10.07
2019-05-02T00:23:41.683Z,9.96
2019-05-02T00:26:10.476Z,9.90
2019-05-02T00:28:42.905Z,9.91
2019-05-02T00:31:11.517Z,9.96
2019-05-02T00:33:40.106Z,9.96
2019-05-02T00:36:08.708Z,9.85
2019-05-02T00:38:38.547Z,9.75
2019-05-02T00:41:07.664Z,9.64
2019-05-02T00:43:36.410Z,9.64
2019-05-02T00:46:05.177Z,9.68
2019-05-02T00:48:38.276Z,9.63
2019-05-02T00:51:06.804Z,9.50
2019-05-02T00:53:35.384Z,9.44
2019-05-02T00:56:05.132Z,9.40
2019-05-02T00:58:34.156Z,9.42
2019-05-02T01:01:10.421Z,9.48
2019-05-02T01:03:40.632Z,9.47
2019-05-02T01:06:13.671Z,9.51
2019-05-02T01:08:39.344Z,9.53
2019-05-02T01:11:08.113Z,9.51
2019-05-02T01:13:36.696Z,9.33
2019-05-02T01:16:05.226Z,9.21
2019-05-02T01:18:37.294Z,9.21
2019-05-02T01:21:04.284Z,9.22
2019-05-02T01:23:32.784Z,9.10
2019-05-02T01:26:01.290Z,9.02
2019-05-02T01:28:49.278Z,9.06
2019-05-02T01:31:37.141Z,9.11
2019-05-02T01:34:18.092Z,9.13
2019-05-02T01:37:04.174Z,9.06
2019-05-02T01:39:32.714Z,9.07
2019-05-02T01:42:04.169Z,9.11
2019-05-02T01:44:36.455Z,9.06
2019-05-02T01:47:01.789Z,8.95
2019-05-02T01:49:30.306Z,8.90
2019-05-02T01:51:58.773Z,8.80
2019-05-02T01:54:27.365Z,8.71
2019-05-02T01:56:56.191Z,8.75
2019-05-02T01:59:29.027Z,8.76
2019-05-02T02:01:57.975Z,8.73
2019-05-02T02:04:25.252Z,8.56
2019-05-02T02:06:53.771Z,8.35
2019-05-02T02:09:22.282Z,8.26
2019-05-02T02:11:50.843Z,8.27
2019-05-02T02:14:19.372Z,8.29
2019-05-02T02:16:48.112Z,8.27
2019-05-02T02:19:24.198Z,8.34
2019-05-02T02:21:57.571Z,8.45
2019-05-02T02:24:28.777Z,8.47
2019-05-02T02:26:57.282Z,8.46
2019-05-02T02:29:25.811Z,8.34
2019-05-02T02:31:54.307Z,8.21
2019-05-02T02:34:29.225Z,8.10
2019-05-02T02:36:53.068Z,8.09
2019-05-02T02:39:21.558Z,8.17
2019-05-02T02:41:52.354Z,8.21
2019-05-02T02:44:22.075Z,8.23
2019-05-02T02:46:52.313Z,8.30
2019-05-02T02:49:24.007Z,8.25
2019-05-02T02:51:51.119Z,8.28
2019-05-02T02:54:19.695Z,8.32
2019-05-02T02:56:48.290Z,8.32
2019-05-02T02:59:19.450Z,8.34
2019-05-02T03:01:47.015Z,8.28
2019-05-02T03:04:15.605Z,8.32
2019-05-02T03:06:46.966Z,8.41
2019-05-02T03:09:20.402Z,8.44
2019-05-02T03:11:49.516Z,8.45
2019-05-02T03:14:22.823Z,8.44
2019-05-02T03:16:51.382Z,8.37
2019-05-02T03:19:21.054Z,8.38
2019-05-02T03:21:54.256Z,8.41
2019-05-02T03:24:24.080Z,8.40
2019-05-02T03:26:55.254Z,8.41
2019-05-02T03:29:23.319Z,8.33
2019-05-02T03:32:12.456Z,8.21
2019-05-02T03:34:23.632Z,8.15
2019-05-02T03:36:52.291Z,8.12
2019-05-02T03:39:21.541Z,8.07
2019-05-02T03:41:55.464Z,8.06
2019-05-02T03:44:26.190Z,8.07
2019-05-02T03:46:54.517Z,8.07
2019-05-02T03:49:21.059Z,8.01
2019-05-02T03:51:55.795Z,7.97
2019-05-02T03:54:20.393Z,7.92
2019-05-02T03:56:51.042Z,7.91
2019-05-02T03:59:19.413Z,7.87
2019-05-02T04:01:48.460Z,7.87
2019-05-02T04:04:20.738Z,7.84
2019-05-02T04:06:47.738Z,7.72
2019-05-02T04:09:39.053Z,7.70
2019-05-02T04:12:05.014Z,7.73
2019-05-02T04:14:37.760Z,7.69
2019-05-02T04:17:04.155Z,7.57
2019-05-02T04:19:35.056Z,7.50
2019-05-02T04:22:08.697Z,7.53
2019-05-02T04:24:34.133Z,7.58
2019-05-02T04:27:02.774Z,7.66
2019-05-02T04:29:33.210Z,7.68
2019-05-02T04:32:04.716Z,7.68
2019-05-02T04:34:32.252Z,7.72
2019-05-02T04:37:03.883Z,7.77
2019-05-02T04:39:31.061Z,7.79
2019-05-02T04:42:05.239Z,7.83
2019-05-02T04:44:40.953Z,7.93
2019-05-02T04:47:10.928Z,8.01
2019-05-02T04:49:35.827Z,8.00
2019-05-02T04:52:07.077Z,7.98
2019-05-02T04:54:32.383Z,8.12
2019-05-02T04:57:02.338Z,8.23
2019-05-02T04:59:33.235Z,8.32
2019-05-02T05:02:01.723Z,8.32
2019-05-02T05:04:33.145Z,8.35
2019-05-02T05:07:01.207Z,8.33
2019-05-02T05:09:29.974Z,8.33
2019-05-02T05:12:02.412Z,8.38
2019-05-02T05:14:31.434Z,8.41
2019-05-02T05:16:59.036Z,8.41
2019-05-02T05:19:33.002Z,8.40
2019-05-02T05:22:05.003Z,8.38
2019-05-02T05:24:50.275Z,8.38
2019-05-02T05:27:22.650Z,8.30
2019-05-02T05:29:53.638Z,8.20
2019-05-02T05:32:19.315Z,8.18
2019-05-02T05:34:48.792Z,8.20
2019-05-02T05:40:28.199Z,8.22
2019-05-02T05:48:44.780Z,8.30
2019-05-02T05:51:17.052Z,8.41
2019-05-02T05:53:43.531Z,8.50
2019-05-02T05:56:13.613Z,8.52
2019-05-02T05:58:48.206Z,8.53
2019-05-02T06:01:12.614Z,8.56
2019-05-02T06:03:44.558Z,8.57
2019-05-02T06:06:14.831Z,8.60
2019-05-02T06:08:49.106Z,8.64
2019-05-02T06:11:19.910Z,8.61
2019-05-02T06:13:48.884Z,8.63
2019-05-02T06:16:16.669Z,8.61
2019-05-02T06:18:45.282Z,8.55
2019-05-02T06:21:16.886Z,8.51
2019-05-02T06:23:44.385Z,8.44
2019-05-02T06:26:13.863Z,8.42
2019-05-02T06:28:43.331Z,8.45
2019-05-02T06:31:11.960Z,8.44
2019-05-02T06:33:40.739Z,8.45
2019-05-02T06:36:09.270Z,8.47
2019-05-02T06:38:37.817Z,8.45
2019-05-02T06:41:06.320Z,8.41
2019-05-02T06:43:34.870Z,8.43
2019-05-02T06:46:15.587Z,8.42
2019-05-02T06:48:33.674Z,8.47
2019-05-02T06:51:11.066Z,8.48
2019-05-02T06:53:41.258Z,8.53
2019-05-02T06:56:07.942Z,8.56
2019-05-02T06:58:41.779Z,8.59
2019-05-02T07:01:07.745Z,8.61
2019-05-02T07:03:36.253Z,8.63
2019-05-02T07:06:07.530Z,8.63
2019-05-02T07:08:35.165Z,8.57
2019-05-02T07:11:03.937Z,8.55
2019-05-02T07:13:36.172Z,8.57
2019-05-02T07:16:04.413Z,8.62
2019-05-02T07:18:52.525Z,8.68
2019-05-02T07:21:23.547Z,8.79
2019-05-02T07:23:53.644Z,8.89
2019-05-02T07:26:23.305Z,9.08
2019-05-02T07:28:51.988Z,9.57
2019-05-02T07:31:20.594Z,10.14
2019-05-02T07:33:49.136Z,10.56
2019-05-02T07:36:17.719Z,10.93
2019-05-02T07:38:46.248Z,11.29
2019-05-02T07:41:15.037Z,11.55
2019-05-02T07:43:43.554Z,11.88
2019-05-02T07:46:16.277Z,12.10
2019-05-02T07:48:43.753Z,12.27
2019-05-02T07:51:12.334Z,12.57
2019-05-02T07:53:44.472Z,12.99
2019-05-02T07:56:12.404Z,13.30
2019-05-02T07:58:47.000Z,13.64
2019-05-02T08:01:13.507Z,13.77
2019-05-02T08:03:41.980Z,13.71
2019-05-02T08:06:10.473Z,13.72
2019-05-02T08:08:38.954Z,13.99
2019-05-02T08:11:07.617Z,14.39
2019-05-02T08:13:36.125Z,14.85
2019-05-02T08:16:04.726Z,15.24
2019-05-02T08:18:33.246Z,15.48
2019-05-02T08:21:01.747Z,15.66
2019-05-02T08:23:30.349Z,15.86
2019-05-02T08:25:58.864Z,16.14
2019-05-02T08:28:31.713Z,16.40
2019-05-02T08:31:00.228Z,16.39
2019-05-02T08:33:29.274Z,16.51
2019-05-02T08:35:58.994Z,16.53
2019-05-02T08:38:27.502Z,16.55
2019-05-02T08:40:56.111Z,16.56
2019-05-02T08:43:26.680Z,16.58
2019-05-02T08:45:55.276Z,16.68
2019-05-02T08:48:23.778Z,16.87
2019-05-02T08:50:52.241Z,17.11
2019-05-02T08:53:25.137Z,17.35
2019-05-02T08:55:53.648Z,17.48
2019-05-02T08:58:22.152Z,17.72
2019-05-02T09:00:50.725Z,17.85
2019-05-02T09:03:19.235Z,18.05
2019-05-02T09:05:47.808Z,18.20
2019-05-02T09:08:16.767Z,18.20
2019-05-02T09:10:46.003Z,18.26
2019-05-02T09:13:15.852Z,18.00
2019-05-02T09:15:49.623Z,18.00
2019-05-02T09:18:15.159Z,18.03
2019-05-02T09:20:46.978Z,18.00
2019-05-02T09:23:14.076Z,18.08
2019-05-02T09:25:43.084Z,18.19
2019-05-02T09:28:12.491Z,18.10
2019-05-02T09:30:41.903Z,18.03
2019-05-02T09:33:15.269Z,18.09
2019-05-02T09:35:43.775Z,18.04
2019-05-02T09:38:14.775Z,18.03
2019-05-02T09:40:47.327Z,18.11
2019-05-02T09:43:14.885Z,18.11
2019-05-02T09:45:44.215Z,18.17
2019-05-02T09:48:17.180Z,18.51
2019-05-02T09:50:49.185Z,18.76
2019-05-02T09:53:20.507Z,18.88
2019-05-02T09:55:50.065Z,18.98
2019-05-02T09:58:21.276Z,19.13
2019-05-02T10:00:52.415Z,19.33
2019-05-02T10:03:22.596Z,19.47
2019-05-02T10:05:52.328Z,19.64
2019-05-02T10:08:22.931Z,19.81
2019-05-02T10:10:52.188Z,19.75
2019-05-02T10:13:22.721Z,19.84
2019-05-02T10:15:52.784Z,19.89
2019-05-02T10:18:25.540Z,19.73
2019-05-02T10:20:52.387Z,19.49
2019-05-02T10:23:23.545Z,19.26
2019-05-02T10:25:52.262Z,19.31
2019-05-02T10:28:22.699Z,19.39
2019-05-02T10:30:52.691Z,19.46
2019-05-02T10:33:22.575Z,19.37
2019-05-02T10:35:52.548Z,19.50
2019-05-02T10:38:22.742Z,19.55
2019-05-02T10:40:54.628Z,19.62
2019-05-02T10:43:22.308Z,19.56
2019-05-02T10:45:58.513Z,19.54
2019-05-02T10:48:28.708Z,19.61
2019-05-02T10:51:15.037Z,19.91
2019-05-02T10:53:47.017Z,20.03
2019-05-02T10:56:13.895Z,19.87
2019-05-02T10:58:42.682Z,19.55
2019-05-02T11:01:12.883Z,19.26
2019-05-02T11:03:47.343Z,19.01
2019-05-02T11:06:13.432Z,18.84
2019-05-02T11:08:45.832Z,18.85
2019-05-02T11:11:12.754Z,18.77
2019-05-02T11:13:53.326Z,18.86
2019-05-02T11:16:36.113Z,18.99
2019-05-02T11:19:06.368Z,18.96
2019-05-02T11:21:34.975Z,19.01
2019-05-02T11:24:03.545Z,18.95
2019-05-02T11:26:32.554Z,18.97
2019-05-02T11:29:03.054Z,19.25
2019-05-02T11:31:32.482Z,19.51
2019-05-02T11:34:01.793Z,19.48
2019-05-02T11:36:32.560Z,19.51
2019-05-02T11:39:11.682Z,19.61
2019-05-02T11:41:31.892Z,19.62
2019-05-02T11:44:00.439Z,19.64
2019-05-02T11:46:29.003Z,19.80
2019-05-02T11:48:58.623Z,20.01
2019-05-02T11:51:27.319Z,20.28
2019-05-02T11:53:59.331Z,20.51
2019-05-02T11:56:26.102Z,20.79
2019-05-02T11:58:54.669Z,20.43
2019-05-02T12:01:35.729Z,20.00
2019-05-02T12:03:53.466Z,19.95
2019-05-02T12:06:22.487Z,20.04
2019-05-02T12:08:52.640Z,20.09
2019-05-02T12:11:22.808Z,20.10
2019-05-02T12:13:55.481Z,20.06
2019-05-02T12:16:23.016Z,20.01
2019-05-02T12:19:14.348Z,19.85
2019-05-02T12:21:41.999Z,19.98
2019-05-02T12:24:12.527Z,20.29
2019-05-02T12:26:41.946Z,20.51
2019-05-02T12:29:12.225Z,20.55
2019-05-02T12:31:42.519Z,20.45
2019-05-02T12:34:12.030Z,20.67
2019-05-02T12:36:42.597Z,20.94
2019-05-02T12:39:12.640Z,20.58
2019-05-02T12:41:42.260Z,19.99
2019-05-02T12:44:11.769Z,19.99
2019-05-02T12:46:42.140Z,20.06
2019-05-02T12:49:23.960Z,20.11
2019-05-02T12:51:42.841Z,20.28
2019-05-02T12:54:12.396Z,20.33
2019-05-02T12:56:41.854Z,20.35
2019-05-02T12:59:11.842Z,20.27
2019-05-02T13:01:42.160Z,19.93
2019-05-02T13:04:12.541Z,19.46
2019-05-02T13:06:42.176Z,19.33
2019-05-02T13:09:13.078Z,19.23
2019-05-02T13:11:59.390Z,18.94
2019-05-02T13:14:31.726Z,18.78
2019-05-02T13:17:02.087Z,18.53
2019-05-02T13:19:38.172Z,18.34
2019-05-02T13:22:05.186Z,18.22
2019-05-02T13:24:39.084Z,18.06
2019-05-02T13:27:09.482Z,18.00
2019-05-02T13:29:38.232Z,18.11
2019-05-02T13:32:13.491Z,18.10
2019-05-02T13:34:43.660Z,18.02
2019-05-02T13:37:12.627Z,17.90
2019-05-02T13:39:42.840Z,18.07
2019-05-02T13:42:12.562Z,18.15
2019-05-02T13:44:48.452Z,18.19
2019-05-02T13:47:18.840Z,18.03
2019-05-02T13:49:53.949Z,17.88
2019-05-02T13:52:19.597Z,17.98
2019-05-02T13:54:49.782Z,17.93
2019-05-02T13:57:18.281Z,17.92
2019-05-02T13:59:46.878Z,17.77
2019-05-02T14:02:35.922Z,17.84
2019-05-02T14:05:07.591Z,17.84
2019-05-02T14:07:36.203Z,17.64
2019-05-02T14:10:07.884Z,17.51
2019-05-02T14:12:44.102Z,17.39
2019-05-02T14:15:13.890Z,17.26
2019-05-02T14:17:42.424Z,17.24
2019-05-02T14:20:13.716Z,17.15
2019-05-02T14:22:42.486Z,17.15
2019-05-02T14:25:12.258Z,17.26
2019-05-02T14:27:42.179Z,17.19
2019-05-02T14:30:12.172Z,17.08
2019-05-02T14:32:42.447Z,17.01
2019-05-02T14:35:18.698Z,16.90
2019-05-02T14:37:47.723Z,16.91
2019-05-02T14:40:18.106Z,16.88
2019-05-02T14:42:46.644Z,16.95
2019-05-02T14:45:27.142Z,16.85
2019-05-02T14:47:49.707Z,16.85
2019-05-02T14:50:24.253Z,16.90
2019-05-02T14:52:46.596Z,16.92
2019-05-02T14:55:17.060Z,16.79
2019-05-02T14:57:45.869Z,16.69
2019-05-02T15:00:16.960Z,16.60
2019-05-02T15:02:49.292Z,16.45
2019-05-02T15:05:19.190Z,16.33
2019-05-02T15:07:46.260Z,16.30
2019-05-02T15:10:14.920Z,16.28
2019-05-02T15:12:43.451Z,16.26
2019-05-02T15:15:12.429Z,16.22
2019-05-02T15:17:42.105Z,16.16
2019-05-02T15:20:12.999Z,16.15
2019-05-02T15:22:42.479Z,16.03
2019-05-02T15:25:13.766Z,15.98
2019-05-02T15:27:44.595Z,15.92
2019-05-02T15:30:13.093Z,15.88
2019-05-02T15:32:46.464Z,15.83
2019-05-02T15:35:25.089Z,15.66
2019-05-02T15:37:51.808Z,15.46
2019-05-02T15:42:52.072Z,15.03
2019-05-02T15:45:23.560Z,14.63
2019-05-02T15:47:52.639Z,14.24
2019-05-02T15:50:25.625Z,13.94
2019-05-02T15:52:57.194Z,13.44
2019-05-02T15:55:33.889Z,13.28
2019-05-02T15:57:58.924Z,13.23
2019-05-02T16:00:29.297Z,13.24
2019-05-02T16:03:01.585Z,13.17
2019-05-02T16:05:28.192Z,13.26
2019-05-02T16:08:05.481Z,13.24
2019-05-02T16:10:33.382Z,13.19
2019-05-02T16:12:59.521Z,13.14
2019-05-02T16:15:27.637Z,13.04
2019-05-02T16:18:03.639Z,12.92
2019-05-02T16:20:35.150Z,12.86
2019-05-02T16:23:06.500Z,12.75
2019-05-02T16:25:35.116Z,12.73
2019-05-02T16:28:06.092Z,12.74
2019-05-02T16:30:36.956Z,12.73
2019-05-02T16:33:18.865Z,12.64
2019-05-02T16:35:41.992Z,12.51
2019-05-02T16:38:12.258Z,12.40
2019-05-02T16:40:41.902Z,12.28
2019-05-02T16:43:12.171Z,12.20
2019-05-02T16:45:41.651Z,12.01
2019-05-02T16:48:12.015Z,11.97
2019-05-02T16:50:42.053Z,11.79
2019-05-02T16:58:37.988Z,11.59
2019-05-02T17:01:06.979Z,11.66
2019-05-02T17:03:35.499Z,11.68
2019-05-02T17:06:04.007Z,11.72
2019-05-02T17:08:34.100Z,11.69
2019-05-02T17:11:04.325Z,11.66
2019-05-02T17:13:35.762Z,11.51
2019-05-02T17:16:06.818Z,11.47
2019-05-02T17:18:33.317Z,11.51
2019-05-02T17:21:01.806Z,11.55
2019-05-02T17:23:30.294Z,11.44
2019-05-02T17:25:58.776Z,11.41
2019-05-02T17:28:27.291Z,11.42
2019-05-02T17:30:55.795Z,11.45
2019-05-02T17:33:24.296Z,11.31
2019-05-02T17:35:54.312Z,11.24
2019-05-02T17:38:27.707Z,11.11
2019-05-02T17:40:54.476Z,11.07
2019-05-02T17:43:23.535Z,11.13
2019-05-02T17:45:52.027Z,11.22
2019-05-02T17:48:20.514Z,11.28
2019-05-02T17:50:56.022Z,11.32
2019-05-02T17:53:22.514Z,11.32
2019-05-02T17:55:52.601Z,11.25
2019-05-02T17:58:21.180Z,11.23
2019-05-02T18:00:55.771Z,11.17
2019-05-02T18:03:24.079Z,11.19
2019-05-02T18:05:52.875Z,11.17
2019-05-02T18:08:21.847Z,11.16
2019-05-02T18:10:55.116Z,11.17
2019-05-02T18:13:22.667Z,11.17
2019-05-02T18:15:53.257Z,11.17
2019-05-02T18:18:22.138Z,11.19
2019-05-02T18:20:52.903Z,11.23
2019-05-02T18:23:25.750Z,11.27
2019-05-02T18:25:52.548Z,11.28
2019-05-02T18:28:25.915Z,11.30
2019-05-02T18:30:52.504Z,11.29
2019-05-02T18:33:22.665Z,11.15
2019-05-02T18:35:52.608Z,11.20
2019-05-02T18:38:22.417Z,11.14
2019-05-02T18:40:52.124Z,11.10
2019-05-02T18:43:22.260Z,11.14
2019-05-02T18:45:51.566Z,11.14
2019-05-02T18:48:21.841Z,11.11
2019-05-02T18:50:52.423Z,11.05
2019-05-02T18:53:24.260Z,11.04
2019-05-02T18:55:51.899Z,11.09
2019-05-02T18:58:22.537Z,11.10
2019-05-02T19:00:51.992Z,11.12
2019-05-02T19:03:20.607Z,11.09
2019-05-02T19:05:51.703Z,11.13
2019-05-02T19:08:30.634Z,11.13
2019-05-02T19:11:04.057Z,11.15
2019-05-02T19:13:21.811Z,11.16
2019-05-02T19:15:50.325Z,11.10
2019-05-02T19:18:19.721Z,10.99
2019-05-02T19:20:57.550Z,10.95
2019-05-02T19:23:24.767Z,10.96
2019-05-02T19:25:53.326Z,11.04
2019-05-02T19:28:34.751Z,11.10
2019-05-02T19:31:02.910Z,11.05
2019-05-02T19:33:31.882Z,10.99
2019-05-02T19:36:02.659Z,10.95
2019-05-02T19:38:32.323Z,10.92
2019-05-02T19:41:05.533Z,10.94
2019-05-02T19:43:32.409Z,10.92
2019-05-02T19:46:02.244Z,10.90
2019-05-02T19:48:32.909Z,10.95
2019-05-02T19:51:02.485Z,10.94
2019-05-02T19:53:32.250Z,10.94
2019-05-02T19:56:02.971Z,10.95
2019-05-02T19:58:36.737Z,10.97
2019-05-02T20:01:02.652Z,11.03
2019-05-02T20:03:32.395Z,11.08
2019-05-02T20:06:02.310Z,11.07
2019-05-02T20:08:32.631Z,11.03
2019-05-02T20:11:02.117Z,10.89
2019-05-02T20:13:32.673Z,10.77
2019-05-02T20:16:05.813Z,10.61
2019-05-02T20:18:36.738Z,10.60
2019-05-02T20:21:21.740Z,10.66
2019-05-02T20:23:43.180Z,10.67
2019-05-02T20:26:15.402Z,10.73
2019-05-02T20:28:42.386Z,10.78
2019-05-02T20:31:12.321Z,10.82
2019-05-02T20:33:42.868Z,10.84
2019-05-02T20:36:12.423Z,10.83
2019-05-02T20:38:41.770Z,10.83
2019-05-02T20:41:12.576Z,10.78
2019-05-02T20:43:42.912Z,10.73
2019-05-02T20:46:12.121Z,10.59
2019-05-02T20:48:41.807Z,10.52
2019-05-02T20:51:12.210Z,10.56
2019-05-02T20:53:42.097Z,10.50
2019-05-02T20:56:12.386Z,10.52
2019-05-02T20:58:41.994Z,10.55
2019-05-02T21:01:12.365Z,10.58
2019-05-02T21:03:42.744Z,10.57
2019-05-02T21:06:18.861Z,10.53
2019-05-02T21:09:02.202Z,10.52
2019-05-02T21:11:32.389Z,10.44
2019-05-02T21:14:01.680Z,10.42
2019-05-02T21:16:32.116Z,10.46
2019-05-02T21:19:02.213Z,10.42
2019-05-02T21:21:32.475Z,10.40
2019-05-02T21:24:02.095Z,10.44
2019-05-02T21:26:32.704Z,10.41
2019-05-02T21:29:00.869Z,10.41
2019-05-02T21:31:29.375Z,10.39
2019-05-02T21:33:59.397Z,10.30
2019-05-02T21:36:27.871Z,10.27
2019-05-02T21:38:56.427Z,10.29
2019-05-02T21:41:24.923Z,10.22
2019-05-02T21:43:53.418Z,10.26
2019-05-02T21:46:22.443Z,10.24
2019-05-02T21:48:52.671Z,10.27
2019-05-02T21:51:34.869Z,10.20
2019-05-02T21:54:22.634Z,10.15
2019-05-02T21:56:58.657Z,10.15
2019-05-02T21:59:27.158Z,10.22
2019-05-02T22:01:57.360Z,10.19
2019-05-02T22:04:25.902Z,10.17
2019-05-02T22:06:54.395Z,10.19
2019-05-02T22:09:23.331Z,10.25
2019-05-02T22:11:52.208Z,10.28
2019-05-02T22:14:22.387Z,10.26
2019-05-02T22:16:52.950Z,10.24
2019-05-02T22:19:21.443Z,10.16
2019-05-02T22:21:49.916Z,10.14
2019-05-02T22:24:18.545Z,10.16
2019-05-02T22:26:47.032Z,10.15
2019-05-02T22:29:15.598Z,10.15
2019-05-02T22:31:44.092Z,10.18
2019-05-02T22:34:13.014Z,10.22
2019-05-02T22:36:41.883Z,10.03
2019-05-02T22:39:15.570Z,9.82
2019-05-02T22:41:44.028Z,9.79
2019-05-02T22:44:12.587Z,9.83
2019-05-02T22:46:43.426Z,9.81
2019-05-02T22:49:14.589Z,9.74
2019-05-02T22:51:43.925Z,9.70
2019-05-02T22:54:24.282Z,9.74
2019-05-02T22:56:42.803Z,9.75
2019-05-02T22:59:11.301Z,9.72
2019-05-02T23:01:41.951Z,9.64
2019-05-02T23:04:12.506Z,9.66
2019-05-02T23:06:43.952Z,9.69
2019-05-02T23:09:12.637Z,9.72
2019-05-02T23:11:42.524Z,9.78
2019-05-02T23:14:11.343Z,9.83
2019-05-02T23:16:42.320Z,9.90
2019-05-02T23:19:12.074Z,9.91
2019-05-02T23:21:42.234Z,9.88
2019-05-02T23:24:14.479Z,9.83
2019-05-02T23:26:58.998Z,9.77
2019-05-02T23:29:27.490Z,9.78
2019-05-02T23:31:56.026Z,9.78
2019-05-02T23:34:24.544Z,9.75
2019-05-02T23:36:53.098Z,9.76
2019-05-02T23:39:21.659Z,9.80
2019-05-02T23:41:50.167Z,9.85
2019-05-02T23:44:18.695Z,9.85
2019-05-02T23:46:47.169Z,9.81
2019-05-02T23:49:15.820Z,9.80
2019-05-02T23:51:44.289Z,9.74
2019-05-02T23:54:13.172Z,9.79
2019-05-02T23:56:43.062Z,9.85
2019-05-02T23:59:12.096Z,9.92
